createdAt,value
2019-01-06T00:02:01.645Z,4.65
2019-01-06T00:04:39.800Z,4.10
2019-01-06T00:07:17.785Z,3.90
2019-01-06T00:09:55.404Z,15.88
2019-01-06T00:12:36.549Z,3.08
2019-01-06T00:15:24.889Z,5.08
2019-01-06T00:18:13.280Z,4.97
2019-01-06T00:20:51.140Z,2.60
2019-01-06T00:23:32.877Z,1.62
2019-01-06T00:26:08.659Z,3.10
2019-01-06T00:28:57.375Z,1.80
2019-01-06T00:31:29.726Z,4.40
2019-01-06T00:34:08.102Z,4.00
2019-01-06T00:36:49.367Z,1.42
2019-01-06T00:39:24.372Z,6.28
2019-01-06T00:42:08.342Z,3.40
2019-01-06T00:44:56.872Z,2.10
2019-01-06T00:47:44.828Z,3.22
2019-01-06T00:50:28.708Z,1.95
2019-01-06T00:53:06.506Z,2.60
2019-01-06T00:55:54.869Z,5.25
2019-01-06T00:58:39.165Z,2.65
2019-01-06T01:01:16.829Z,3.02
2019-01-06T01:04:04.854Z,4.72
2019-01-06T01:06:37.193Z,4.97
2019-01-06T01:09:45.740Z,2.92
2019-01-06T01:12:18.009Z,6.85
2019-01-06T01:14:55.786Z,3.83
2019-01-06T01:17:46.008Z,3.80
2019-01-06T01:20:34.127Z,3.98
2019-01-06T01:23:15.299Z,3.75
2019-01-06T01:25:53.175Z,4.78
2019-01-06T01:28:25.234Z,3.80
2019-01-06T01:31:12.581Z,3.67
2019-01-06T01:33:44.900Z,3.40
2019-01-06T01:36:17.060Z,7.92
2019-01-06T01:39:01.627Z,10.00
2019-01-06T01:41:33.613Z,7.15
2019-01-06T01:44:08.625Z,7.33
2019-01-06T01:46:53.033Z,4.08
2019-01-06T01:49:41.427Z,9.78
2019-01-06T01:52:28.576Z,4.75
2019-01-06T01:55:03.722Z,4.35
2019-01-06T01:57:53.669Z,5.83
2019-01-06T02:00:25.772Z,10.38
2019-01-06T02:03:13.631Z,8.60
2019-01-06T02:05:48.428Z,4.20
2019-01-06T02:08:37.084Z,4.35
2019-01-06T02:11:18.685Z,3.50
2019-01-06T02:13:53.890Z,5.42
2019-01-06T02:16:40.677Z,4.60
2019-01-06T02:19:18.622Z,7.05
2019-01-06T02:22:05.738Z,4.50
2019-01-06T02:24:54.007Z,5.20
2019-01-06T02:27:38.092Z,4.83
2019-01-06T02:30:25.273Z,5.40
2019-01-06T02:32:57.832Z,7.17
2019-01-06T02:35:47.715Z,9.70
2019-01-06T02:38:25.328Z,5.05
2019-01-06T02:41:13.525Z,5.42
2019-01-06T02:43:48.339Z,6.47
2019-01-06T02:46:36.336Z,10.82
2019-01-06T02:49:08.623Z,6.15
2019-01-06T02:51:49.332Z,10.43
2019-01-06T02:54:33.239Z,7.58
2019-01-06T02:57:13.693Z,7.58
2019-01-06T02:59:48.627Z,7.78
2019-01-06T03:02:36.829Z,7.62
2019-01-06T03:05:18.658Z,5.90
2019-01-06T03:07:50.648Z,8.23
2019-01-06T03:10:31.658Z,5.08
2019-01-06T03:13:06.034Z,8.75
2019-01-06T03:15:53.531Z,7.40
2019-01-06T03:18:25.490Z,6.85
2019-01-06T03:20:57.456Z,6.65
2019-01-06T03:23:38.502Z,5.67
2019-01-06T03:26:25.515Z,5.83
2019-01-06T03:29:13.593Z,6.92
2019-01-06T03:31:54.624Z,5.80
2019-01-06T03:34:29.445Z,7.00
2019-01-06T03:37:04.550Z,9.15
2019-01-06T03:39:42.245Z,18.57
2019-01-06T03:42:14.969Z,6.15
2019-01-06T03:44:55.909Z,6.78
2019-01-06T03:47:31.221Z,4.83
2019-01-06T03:50:03.470Z,8.18
2019-01-06T03:52:35.438Z,5.45
2019-01-06T03:55:25.975Z,4.92
2019-01-06T03:58:06.843Z,6.58
2019-01-06T04:00:39.198Z,6.08
2019-01-06T04:03:23.768Z,4.75
2019-01-06T04:06:01.629Z,6.37
2019-01-06T04:08:42.574Z,5.35
2019-01-06T04:11:24.126Z,4.55
2019-01-06T04:13:56.111Z,5.40
2019-01-06T04:16:37.121Z,5.75
2019-01-06T04:19:25.232Z,5.35
2019-01-06T04:22:13.339Z,4.87
2019-01-06T04:24:55.562Z,6.45
2019-01-06T04:27:33.362Z,5.80
2019-01-06T04:30:06.433Z,5.22
2019-01-06T04:32:45.042Z,3.98
2019-01-06T04:35:17.372Z,3.65
2019-01-06T04:37:52.815Z,5.10
2019-01-06T04:40:24.805Z,6.17
2019-01-06T04:43:00.248Z,5.12
2019-01-06T04:45:48.214Z,8.48
2019-01-06T04:48:29.142Z,5.95
2019-01-06T04:51:13.231Z,3.02
2019-01-06T04:54:01.460Z,4.12
2019-01-06T04:56:49.446Z,5.92
2019-01-06T04:59:37.929Z,3.17
2019-01-06T05:02:09.886Z,5.45
2019-01-06T05:04:44.774Z,4.83
2019-01-06T05:07:16.756Z,3.50
2019-01-06T05:09:57.772Z,3.77
2019-01-06T05:12:47.886Z,3.40
2019-01-06T05:15:36.662Z,3.80
2019-01-06T05:18:08.954Z,9.98
2019-01-06T05:20:44.031Z,4.50
2019-01-06T05:23:16.114Z,3.47
2019-01-06T05:25:51.072Z,3.35
2019-01-06T05:28:23.334Z,3.15
2019-01-06T05:30:58.268Z,3.83
2019-01-06T05:33:30.231Z,3.40
2019-01-06T05:36:17.566Z,3.02
2019-01-06T05:39:05.581Z,3.10
2019-01-06T05:41:50.279Z,4.35
2019-01-06T05:44:24.884Z,3.47
2019-01-06T05:46:59.744Z,3.22
2019-01-06T05:49:32.076Z,3.37
2019-01-06T05:52:12.812Z,3.85
2019-01-06T05:55:01.179Z,2.83
2019-01-06T05:57:33.193Z,3.10
2019-01-06T06:00:11.357Z,3.80
2019-01-06T06:02:44.111Z,9.60
2019-01-06T06:05:19.034Z,3.45
2019-01-06T06:08:07.570Z,5.87
2019-01-06T06:10:51.423Z,3.67
2019-01-06T06:13:29.666Z,3.05
2019-01-06T06:16:07.868Z,3.08
2019-01-06T06:18:43.416Z,3.25
2019-01-06T06:21:18.339Z,4.03
2019-01-06T06:24:02.266Z,4.33
2019-01-06T06:26:34.252Z,2.83
2019-01-06T06:29:12.064Z,4.67
2019-01-06T06:31:47.307Z,2.65
2019-01-06T06:34:36.166Z,2.62
2019-01-06T06:37:13.924Z,3.90
2019-01-06T06:39:55.143Z,4.67
2019-01-06T06:42:42.109Z,3.67
2019-01-06T06:45:19.904Z,3.45
2019-01-06T06:47:58.181Z,3.60
2019-01-06T06:50:30.187Z,7.70
2019-01-06T06:53:05.806Z,2.00
2019-01-06T06:55:50.035Z,2.02
2019-01-06T06:58:27.955Z,3.27
2019-01-06T07:01:30.161Z,4.55
2019-01-06T07:04:14.729Z,2.08
2019-01-06T07:06:49.293Z,1.87
2019-01-06T07:09:37.608Z,4.12
2019-01-06T07:12:25.703Z,2.70
2019-01-06T07:15:14.057Z,2.22
2019-01-06T07:17:50.361Z,9.68
2019-01-06T07:20:29.550Z,1.80
2019-01-06T07:23:07.493Z,3.20
2019-01-06T07:25:39.842Z,2.55
2019-01-06T07:28:12.179Z,3.22
2019-01-06T07:30:50.471Z,4.87
2019-01-06T07:33:38.323Z,2.35
2019-01-06T07:36:16.300Z,2.45
2019-01-06T07:39:07.120Z,2.98
2019-01-06T07:41:55.239Z,2.42
2019-01-06T07:44:39.268Z,2.35
2019-01-06T07:47:23.633Z,5.97
2019-01-06T07:49:55.644Z,8.88
2019-01-06T07:52:27.615Z,11.57
2019-01-06T07:55:05.668Z,10.65
2019-01-06T07:57:37.895Z,6.80
2019-01-06T08:00:32.209Z,7.70
2019-01-06T08:03:20.369Z,5.40
2019-01-06T08:05:55.404Z,7.30
2019-01-06T08:08:33.500Z,4.00
2019-01-06T08:11:17.498Z,5.67
2019-01-06T08:14:05.693Z,9.33
2019-01-06T08:16:50.401Z,3.72
2019-01-06T08:19:31.118Z,2.77
2019-01-06T08:22:11.762Z,2.40
2019-01-06T08:24:59.355Z,3.02
2019-01-06T08:27:31.837Z,4.83
2019-01-06T08:30:19.065Z,3.27
2019-01-06T08:33:00.111Z,3.65
2019-01-06T08:35:34.701Z,7.53
2019-01-06T08:38:15.284Z,2.30
2019-01-06T08:40:47.887Z,3.30
2019-01-06T08:43:31.946Z,2.35
2019-01-06T08:46:03.936Z,5.85
2019-01-06T08:48:44.555Z,8.60
2019-01-06T08:51:16.518Z,2.33
2019-01-06T08:54:06.898Z,2.22
2019-01-06T08:56:45.251Z,2.00
2019-01-06T08:59:33.767Z,2.10
2019-01-06T09:02:05.729Z,2.08
2019-01-06T09:04:40.659Z,3.12
2019-01-06T09:07:16.153Z,2.02
2019-01-06T09:10:04.071Z,3.75
2019-01-06T09:12:52.396Z,1.65
2019-01-06T09:15:24.752Z,3.70
2019-01-06T09:18:14.848Z,2.35
2019-01-06T09:20:46.851Z,1.37
2019-01-06T09:23:35.625Z,1.67
2019-01-06T09:26:13.931Z,1.20
2019-01-06T09:28:54.686Z,1.75
2019-01-06T09:31:44.198Z,1.27
2019-01-06T09:34:25.425Z,2.05
2019-01-06T09:37:13.360Z,1.75
2019-01-06T09:40:01.143Z,3.08
2019-01-06T09:42:45.326Z,2.67
2019-01-06T09:45:23.105Z,6.50
2019-01-06T09:47:55.485Z,1.40
2019-01-06T09:50:28.172Z,2.35
2019-01-06T09:53:02.831Z,1.67
2019-01-06T09:55:50.795Z,1.20
2019-01-06T09:58:38.930Z,3.33
2019-01-06T10:01:14.720Z,2.70
2019-01-06T10:03:53.261Z,3.20
2019-01-06T10:06:37.459Z,2.10
2019-01-06T10:09:46.330Z,1.90
2019-01-06T10:12:49.883Z,2.37
2019-01-06T10:18:51.363Z,2.95
2019-01-06T10:22:00.731Z,2.40
2019-01-06T10:25:02.919Z,2.25
2019-01-06T10:28:11.803Z,4.05
2019-01-06T10:30:59.100Z,4.85
2019-01-06T10:37:31.001Z,3.20
2019-01-06T10:40:39.890Z,5.90
2019-01-06T10:43:41.691Z,2.95
2019-01-06T10:50:13.235Z,3.05
2019-01-06T10:53:22.681Z,4.15
2019-01-06T10:56:24.661Z,3.00
2019-01-06T10:59:33.503Z,1.22
2019-01-06T11:02:17.878Z,2.17
2019-01-06T11:05:27.066Z,3.35
2019-01-06T11:08:17.990Z,1.60
2019-01-06T11:11:46.516Z,3.80
2019-01-06T11:14:32.768Z,4.25
2019-01-06T11:17:41.652Z,3.67
2019-01-06T11:20:25.845Z,1.00
2019-01-06T11:30:19.844Z,3.62
2019-01-06T11:33:04.570Z,2.83
2019-01-06T11:36:13.463Z,2.40
2019-01-06T11:39:00.779Z,1.07
2019-01-06T11:42:04.333Z,6.37
2019-01-06T11:45:13.502Z,1.40
2019-01-06T11:48:15.693Z,1.30
2019-01-06T11:51:24.565Z,1.42
2019-01-06T11:54:27.604Z,1.25
2019-01-06T11:57:30.126Z,1.55
2019-01-06T12:00:39.021Z,1.40
2019-01-06T12:03:25.709Z,1.27
2019-01-06T12:06:34.587Z,3.10
2019-01-06T12:09:18.960Z,3.22
2019-01-06T12:12:27.984Z,1.10
2019-01-06T12:15:15.545Z,4.20
2019-01-06T12:18:24.405Z,1.00
2019-01-06T12:21:11.324Z,1.22
2019-01-06T12:24:20.466Z,1.65
2019-01-06T12:27:22.596Z,2.05
2019-01-06T12:33:24.946Z,2.47
2019-01-06T12:36:34.122Z,3.60
2019-01-06T12:39:23.107Z,2.10
2019-01-06T12:42:33.581Z,1.05
2019-01-06T12:45:35.698Z,1.10
2019-01-06T12:48:44.916Z,1.50
2019-01-06T12:51:46.657Z,0.70
2019-01-06T12:54:48.786Z,0.98
2019-01-06T12:57:57.972Z,1.00
2019-01-06T13:00:45.092Z,1.32
2019-01-06T13:13:40.903Z,1.20
2019-01-06T13:16:43.981Z,1.15
2019-01-06T13:19:52.869Z,2.85
2019-01-06T13:22:55.277Z,1.60
2019-01-06T13:26:04.178Z,1.95
2019-01-06T13:28:49.212Z,3.75
2019-01-06T13:35:07.207Z,0.85
2019-01-06T13:38:16.702Z,5.95
2019-01-06T13:47:43.039Z,5.30
2019-01-06T13:50:44.575Z,3.27
2019-01-06T13:53:46.802Z,1.62
2019-01-06T14:00:03.534Z,11.40
2019-01-06T14:03:05.370Z,1.70
2019-01-06T14:18:03.185Z,15.85
2019-01-06T14:21:12.032Z,6.87
2019-01-06T14:24:12.091Z,5.70
2019-01-06T14:27:20.989Z,1.30
2019-01-06T14:30:05.690Z,4.05
2019-01-06T14:33:14.564Z,12.23
2019-01-06T14:45:43.354Z,1.20
2019-01-06T14:48:27.843Z,1.27
2019-01-06T14:51:30.277Z,1.30
2019-01-06T14:54:39.358Z,2.25
2019-01-06T14:57:23.781Z,1.98
2019-01-06T15:00:32.722Z,3.92
2019-01-06T15:03:36.836Z,3.65
2019-01-06T15:06:46.208Z,7.42
2019-01-06T15:13:10.097Z,1.90
2019-01-06T15:15:55.747Z,2.02
2019-01-06T15:19:04.629Z,1.45
2019-01-06T15:21:49.127Z,1.92
2019-01-06T15:28:07.106Z,4.42
2019-01-06T15:31:16.247Z,7.20
2019-01-06T15:34:19.849Z,3.60
2019-01-06T15:37:28.712Z,3.92
2019-01-06T15:40:13.071Z,4.97
2019-01-06T15:43:22.248Z,2.60
2019-01-06T15:46:06.709Z,5.03
2019-01-06T15:48:54.182Z,18.42
2019-01-06T15:51:57.943Z,6.70
2019-01-06T15:55:06.831Z,7.08
2019-01-06T15:58:10.250Z,3.33
2019-01-06T16:04:42.055Z,2.42
2019-01-06T16:07:50.951Z,9.50
2019-01-06T16:10:52.676Z,2.40
2019-01-06T16:14:01.790Z,2.10
2019-01-06T16:16:48.930Z,3.52
2019-01-06T16:19:59.453Z,3.62
2019-01-06T16:23:01.028Z,2.98
2019-01-06T16:26:10.140Z,4.05
2019-01-06T16:28:55.992Z,16.80
2019-01-06T16:32:04.975Z,12.28
2019-01-06T16:35:06.886Z,8.63
2019-01-06T16:38:15.736Z,10.08
2019-01-06T16:44:39.394Z,10.53
2019-01-06T16:47:40.803Z,7.10
2019-01-06T16:53:43.584Z,5.75
2019-01-06T16:56:52.524Z,6.60
2019-01-06T17:03:17.260Z,13.48
2019-01-06T17:06:20.987Z,14.30
2019-01-06T17:09:30.800Z,11.83
2019-01-06T17:19:10.788Z,10.55
2019-01-06T17:21:58.179Z,10.75
2019-01-06T17:25:07.041Z,8.15
2019-01-06T17:27:54.132Z,10.20
2019-01-06T17:34:09.178Z,5.50
2019-01-06T17:37:18.724Z,8.70
2019-01-06T17:40:20.546Z,5.22
2019-01-06T17:43:08.430Z,12.47
2019-01-06T17:46:10.260Z,7.65
2019-01-06T17:52:26.997Z,14.03
2019-01-06T17:55:37.472Z,7.70
2019-01-06T17:58:39.649Z,13.55
2019-01-06T18:01:48.563Z,12.70
2019-01-06T18:04:57.414Z,13.40
2019-01-06T18:07:45.396Z,19.67
2019-01-06T18:13:58.541Z,14.13
2019-01-06T18:17:00.306Z,12.63
2019-01-06T18:19:47.718Z,16.57
2019-01-06T18:22:36.477Z,11.85
2019-01-06T18:25:43.615Z,15.90
2019-01-06T18:28:45.588Z,14.55
2019-01-06T18:31:54.440Z,20.97
2019-01-06T18:34:40.448Z,17.15
2019-01-06T18:37:49.588Z,12.80
2019-01-06T18:40:51.857Z,17.62
2019-01-06T18:44:01.329Z,12.23
2019-01-06T18:47:03.467Z,13.93
2019-01-06T18:49:54.856Z,11.40
2019-01-06T18:53:04.021Z,12.90
2019-01-06T18:55:46.420Z,15.40
2019-01-06T18:58:19.061Z,15.08
2019-01-06T19:01:10.040Z,17.10
2019-01-06T19:03:50.764Z,18.30
2019-01-06T19:06:37.798Z,16.85
2019-01-06T19:09:10.434Z,16.52
2019-01-06T19:11:42.446Z,23.40
2019-01-06T19:14:30.992Z,23.15
2019-01-06T19:17:10.411Z,19.70
2019-01-06T19:19:58.855Z,22.40
2019-01-06T19:22:47.159Z,21.50
2019-01-06T19:25:25.527Z,18.95
2019-01-06T19:28:00.262Z,23.20
2019-01-06T19:30:35.426Z,33.40
2019-01-06T19:33:24.063Z,25.45
2019-01-06T19:36:12.922Z,24.47
2019-01-06T19:39:01.576Z,22.90
2019-01-06T19:41:39.565Z,22.02
2019-01-06T19:44:20.797Z,22.02
2019-01-06T19:46:52.821Z,15.83
2019-01-06T19:49:40.814Z,20.23
2019-01-06T19:52:13.314Z,17.10
2019-01-06T19:54:45.315Z,15.93
2019-01-06T19:57:33.801Z,22.70
2019-01-06T20:00:08.402Z,17.62
2019-01-06T20:02:46.164Z,13.15
2019-01-06T20:05:26.853Z,17.12
2019-01-06T20:08:08.330Z,21.12
2019-01-06T20:10:56.677Z,19.65
2019-01-06T20:13:28.681Z,15.80
2019-01-06T20:16:16.912Z,16.45
2019-01-06T20:19:07.536Z,15.78
2019-01-06T20:21:55.596Z,19.07
2019-01-06T20:24:43.728Z,16.45
2019-01-06T20:27:21.678Z,14.47
2019-01-06T20:30:05.847Z,20.23
2019-01-06T20:32:43.650Z,12.65
2019-01-06T20:35:15.655Z,17.98
2019-01-06T20:37:47.700Z,18.17
2019-01-06T20:40:19.705Z,15.90
2019-01-06T20:43:00.646Z,15.43
2019-01-06T20:45:32.701Z,13.53
2019-01-06T20:48:08.654Z,17.05
2019-01-06T20:50:47.184Z,18.55
2019-01-06T20:53:19.175Z,16.65
2019-01-06T20:56:00.757Z,24.10
2019-01-06T20:58:32.772Z,33.45
2019-01-06T21:01:11.281Z,20.92
2019-01-06T21:04:00.508Z,18.70
2019-01-06T21:06:32.857Z,23.95
2019-01-06T21:09:20.987Z,24.55
2019-01-06T21:12:09.780Z,22.73
2019-01-06T21:14:58.136Z,21.52
2019-01-06T21:17:33.440Z,17.73
2019-01-06T21:20:12.702Z,20.97
2019-01-06T21:22:53.773Z,27.25
2019-01-06T21:25:34.430Z,25.10
2019-01-06T21:28:12.690Z,21.73
2019-01-06T21:31:01.231Z,21.35
2019-01-06T21:33:33.587Z,17.05
2019-01-06T21:36:20.541Z,17.87
2019-01-06T21:38:55.548Z,18.67
2019-01-06T21:44:37.963Z,16.73
2019-01-06T21:47:12.682Z,18.45
2019-01-06T21:49:45.379Z,18.60
2019-01-06T21:52:20.028Z,15.75
2019-01-06T21:54:55.196Z,13.65
2019-01-06T21:57:27.835Z,15.43
2019-01-06T22:00:03.064Z,15.72
2019-01-06T22:02:51.690Z,15.50
2019-01-06T22:05:29.334Z,18.10
2019-01-06T22:08:07.108Z,16.95
2019-01-06T22:10:39.652Z,16.15
2019-01-06T22:13:27.151Z,19.65
2019-01-06T22:16:07.993Z,16.50
2019-01-06T22:18:58.423Z,18.77
2019-01-06T22:21:46.340Z,15.35
2019-01-06T22:24:18.408Z,15.93
2019-01-06T22:26:53.158Z,16.73
2019-01-06T22:29:43.787Z,22.55
2019-01-06T22:32:25.212Z,14.45
2019-01-06T22:35:03.173Z,13.70
2019-01-06T22:37:51.560Z,10.68
2019-01-06T22:40:23.896Z,14.25
2019-01-06T22:42:56.337Z,15.13
2019-01-06T22:45:31.679Z,10.82
2019-01-06T22:48:22.397Z,16.60
2019-01-06T22:50:57.027Z,9.55
2019-01-06T22:53:28.998Z,9.18
2019-01-06T22:56:01.231Z,16.80
2019-01-06T22:58:33.771Z,12.65
2019-01-06T23:01:05.747Z,13.90
2019-01-06T23:03:44.129Z,15.25
2019-01-06T23:06:22.066Z,12.18
2019-01-06T23:09:03.324Z,11.53
2019-01-06T23:11:51.599Z,11.97
2019-01-06T23:14:32.636Z,8.05
2019-01-06T23:17:04.626Z,12.13
2019-01-06T23:19:42.671Z,14.05
2019-01-06T23:22:24.007Z,12.33
2019-01-06T23:25:01.606Z,9.83
2019-01-06T23:27:33.833Z,13.75
2019-01-06T23:30:07.621Z,11.10
2019-01-06T23:32:43.008Z,12.50
2019-01-06T23:35:24.124Z,12.50
2019-01-06T23:38:14.317Z,13.88
2019-01-06T23:41:01.285Z,9.58
2019-01-06T23:43:36.141Z,13.75
2019-01-06T23:46:24.528Z,13.35
2019-01-06T23:49:14.907Z,9.30
2019-01-06T23:51:52.491Z,15.48
2019-01-06T23:54:41.020Z,12.30
2019-01-06T23:57:28.325Z,11.75
